sensor_id;sensor_type;location;lat;lon;timestamp;P1;durP1;ratioP1;P2;durP2;ratioP2
17648;SDS011;8943;51.110;-4.158;2023-08-08T00:00:12;2.53;;;1.50;;
17648;SDS011;8943;51.110;-4.158;2023-08-08T00:02:43;4.03;;;1.90;;
17648;SDS011;8943;51.110;-4.158;2023-08-08T00:05:14;4.20;;;1.80;;
17648;SDS011;8943;51.110;-4.158;2023-08-08T00:07:43;3.23;;;1.87;;
17648;SDS011;8943;51.110;-4.158;2023-08-08T00:10:12;4.17;;;1.67;;
17648;SDS011;8943;51.110;-4.158;2023-08-08T00:12:42;5.23;;;1.80;;
17648;SDS011;8943;51.110;-4.158;2023-08-08T00:15:11;4.77;;;1.80;;
17648;SDS011;8943;51.110;-4.158;2023-08-08T00:17:41;4.73;;;1.60;;
17648;SDS011;8943;51.110;-4.158;2023-08-08T00:20:10;3.67;;;1.70;;
17648;SDS011;8943;51.110;-4.158;2023-08-08T00:22:40;2.67;;;1.63;;
17648;SDS011;8943;51.110;-4.158;2023-08-08T00:25:09;3.30;;;1.80;;
17648;SDS011;8943;51.110;-4.158;2023-08-08T00:27:40;3.67;;;1.67;;
17648;SDS011;8943;51.110;-4.158;2023-08-08T00:30:12;2.50;;;1.67;;
17648;SDS011;8943;51.110;-4.158;2023-08-08T00:32:41;4.33;;;1.70;;
17648;SDS011;8943;51.110;-4.158;2023-08-08T00:35:10;2.23;;;1.77;;
17648;SDS011;8943;51.110;-4.158;2023-08-08T00:37:41;2.60;;;1.87;;
17648;SDS011;8943;51.110;-4.158;2023-08-08T00:40:09;2.83;;;2.03;;
17648;SDS011;8943;51.110;-4.158;2023-08-08T00:42:41;7.33;;;2.07;;
17648;SDS011;8943;51.110;-4.158;2023-08-08T00:45:09;1.70;;;1.60;;
17648;SDS011;8943;51.110;-4.158;2023-08-08T00:47:39;4.30;;;2.00;;
17648;SDS011;8943;51.110;-4.158;2023-08-08T00:50:08;2.67;;;1.70;;
17648;SDS011;8943;51.110;-4.158;2023-08-08T00:52:42;4.10;;;1.80;;
17648;SDS011;8943;51.110;-4.158;2023-08-08T00:55:12;4.27;;;2.03;;
17648;SDS011;8943;51.110;-4.158;2023-08-08T00:57:42;2.70;;;1.83;;
17648;SDS011;8943;51.110;-4.158;2023-08-08T01:00:12;6.03;;;1.87;;
17648;SDS011;8943;51.110;-4.158;2023-08-08T01:02:41;7.37;;;2.10;;
17648;SDS011;8943;51.110;-4.158;2023-08-08T01:05:09;3.57;;;2.00;;
17648;SDS011;8943;51.110;-4.158;2023-08-08T01:07:41;5.03;;;2.10;;
17648;SDS011;8943;51.110;-4.158;2023-08-08T01:10:21;5.10;;;2.03;;
17648;SDS011;8943;51.110;-4.158;2023-08-08T01:12:59;5.77;;;2.10;;
17648;SDS011;8943;51.110;-4.158;2023-08-08T01:15:34;6.30;;;2.00;;
17648;SDS011;8943;51.110;-4.158;2023-08-08T01:18:09;4.93;;;2.10;;
17648;SDS011;8943;51.110;-4.158;2023-08-08T01:20:41;5.60;;;2.33;;
17648;SDS011;8943;51.110;-4.158;2023-08-08T01:23:28;2.90;;;1.90;;
17648;SDS011;8943;51.110;-4.158;2023-08-08T01:28:52;5.60;;;1.80;;
17648;SDS011;8943;51.110;-4.158;2023-08-08T01:31:22;4.00;;;2.10;;
17648;SDS011;8943;51.110;-4.158;2023-08-08T01:33:52;4.63;;;2.10;;
17648;SDS011;8943;51.110;-4.158;2023-08-08T01:36:22;4.87;;;2.13;;
17648;SDS011;8943;51.110;-4.158;2023-08-08T01:39:03;4.93;;;1.93;;
17648;SDS011;8943;51.110;-4.158;2023-08-08T01:41:38;3.40;;;1.67;;
17648;SDS011;8943;51.110;-4.158;2023-08-08T01:44:11;5.47;;;2.07;;
17648;SDS011;8943;51.110;-4.158;2023-08-08T01:46:44;4.10;;;1.60;;
17648;SDS011;8943;51.110;-4.158;2023-08-08T01:52:44;1.97;;;1.70;;
17648;SDS011;8943;51.110;-4.158;2023-08-08T01:55:29;3.87;;;2.07;;
17648;SDS011;8943;51.110;-4.158;2023-08-08T01:58:06;5.13;;;2.30;;
17648;SDS011;8943;51.110;-4.158;2023-08-08T02:00:34;6.13;;;2.13;;
17648;SDS011;8943;51.110;-4.158;2023-08-08T02:03:03;4.40;;;2.00;;
17648;SDS011;8943;51.110;-4.158;2023-08-08T02:05:32;8.03;;;2.37;;
17648;SDS011;8943;51.110;-4.158;2023-08-08T02:08:00;5.43;;;2.57;;
17648;SDS011;8943;51.110;-4.158;2023-08-08T02:10:29;11.00;;;2.30;;
17648;SDS011;8943;51.110;-4.158;2023-08-08T02:12:57;4.07;;;2.10;;
17648;SDS011;8943;51.110;-4.158;2023-08-08T02:15:28;4.33;;;2.30;;
17648;SDS011;8943;51.110;-4.158;2023-08-08T02:17:56;4.43;;;2.23;;
17648;SDS011;8943;51.110;-4.158;2023-08-08T02:20:25;7.63;;;2.30;;
17648;SDS011;8943;51.110;-4.158;2023-08-08T02:22:53;5.50;;;2.17;;
17648;SDS011;8943;51.110;-4.158;2023-08-08T02:25:23;3.30;;;1.93;;
17648;SDS011;8943;51.110;-4.158;2023-08-08T02:27:52;5.10;;;2.30;;
17648;SDS011;8943;51.110;-4.158;2023-08-08T02:30:21;6.87;;;2.57;;
17648;SDS011;8943;51.110;-4.158;2023-08-08T02:32:51;7.83;;;2.30;;
17648;SDS011;8943;51.110;-4.158;2023-08-08T02:35:19;5.57;;;2.17;;
17648;SDS011;8943;51.110;-4.158;2023-08-08T02:37:48;6.20;;;2.53;;
17648;SDS011;8943;51.110;-4.158;2023-08-08T02:40:16;5.47;;;2.50;;
17648;SDS011;8943;51.110;-4.158;2023-08-08T02:42:45;5.83;;;2.70;;
17648;SDS011;8943;51.110;-4.158;2023-08-08T02:45:13;5.40;;;2.70;;
17648;SDS011;8943;51.110;-4.158;2023-08-08T02:47:40;4.27;;;2.50;;
17648;SDS011;8943;51.110;-4.158;2023-08-08T02:50:11;3.90;;;2.50;;
17648;SDS011;8943;51.110;-4.158;2023-08-08T02:52:39;8.13;;;2.23;;
17648;SDS011;8943;51.110;-4.158;2023-08-08T02:55:08;5.90;;;2.47;;
17648;SDS011;8943;51.110;-4.158;2023-08-08T02:57:37;4.50;;;2.23;;
17648;SDS011;8943;51.110;-4.158;2023-08-08T03:00:06;6.37;;;2.70;;
17648;SDS011;8943;51.110;-4.158;2023-08-08T03:02:36;10.17;;;2.90;;
17648;SDS011;8943;51.110;-4.158;2023-08-08T03:05:06;7.03;;;2.87;;
17648;SDS011;8943;51.110;-4.158;2023-08-08T03:07:37;6.50;;;2.80;;
17648;SDS011;8943;51.110;-4.158;2023-08-08T03:10:07;5.93;;;2.17;;
17648;SDS011;8943;51.110;-4.158;2023-08-08T03:12:37;5.53;;;2.90;;
17648;SDS011;8943;51.110;-4.158;2023-08-08T03:15:08;5.00;;;2.70;;
17648;SDS011;8943;51.110;-4.158;2023-08-08T03:17:39;4.53;;;2.60;;
17648;SDS011;8943;51.110;-4.158;2023-08-08T03:20:08;8.07;;;2.60;;
17648;SDS011;8943;51.110;-4.158;2023-08-08T03:22:40;3.53;;;2.37;;
17648;SDS011;8943;51.110;-4.158;2023-08-08T03:25:08;6.97;;;2.87;;
17648;SDS011;8943;51.110;-4.158;2023-08-08T03:27:38;5.50;;;2.60;;
17648;SDS011;8943;51.110;-4.158;2023-08-08T03:30:07;9.23;;;2.60;;
17648;SDS011;8943;51.110;-4.158;2023-08-08T03:32:40;6.07;;;2.80;;
17648;SDS011;8943;51.110;-4.158;2023-08-08T03:35:09;7.20;;;2.57;;
17648;SDS011;8943;51.110;-4.158;2023-08-08T03:37:54;6.87;;;2.67;;
17648;SDS011;8943;51.110;-4.158;2023-08-08T03:40:23;6.90;;;2.93;;
17648;SDS011;8943;51.110;-4.158;2023-08-08T03:42:52;5.03;;;2.50;;
17648;SDS011;8943;51.110;-4.158;2023-08-08T03:45:20;5.67;;;2.50;;
17648;SDS011;8943;51.110;-4.158;2023-08-08T03:47:59;4.87;;;2.77;;
17648;SDS011;8943;51.110;-4.158;2023-08-08T03:50:30;4.10;;;2.53;;
17648;SDS011;8943;51.110;-4.158;2023-08-08T03:53:05;4.13;;;2.73;;
17648;SDS011;8943;51.110;-4.158;2023-08-08T03:55:35;7.33;;;3.33;;
17648;SDS011;8943;51.110;-4.158;2023-08-08T03:58:04;7.27;;;3.10;;
17648;SDS011;8943;51.110;-4.158;2023-08-08T04:00:39;8.77;;;3.00;;
17648;SDS011;8943;51.110;-4.158;2023-08-08T04:03:13;5.50;;;2.67;;
17648;SDS011;8943;51.110;-4.158;2023-08-08T04:05:56;10.60;;;3.27;;
17648;SDS011;8943;51.110;-4.158;2023-08-08T04:08:31;5.80;;;1.90;;
17648;SDS011;8943;51.110;-4.158;2023-08-08T04:11:00;6.60;;;2.77;;
17648;SDS011;8943;51.110;-4.158;2023-08-08T04:13:29;3.23;;;2.40;;
17648;SDS011;8943;51.110;-4.158;2023-08-08T04:15:57;5.77;;;2.20;;
17648;SDS011;8943;51.110;-4.158;2023-08-08T04:18:25;4.93;;;2.20;;
17648;SDS011;8943;51.110;-4.158;2023-08-08T04:20:55;6.27;;;1.90;;
17648;SDS011;8943;51.110;-4.158;2023-08-08T04:23:41;8.17;;;2.70;;
17648;SDS011;8943;51.110;-4.158;2023-08-08T04:26:17;4.90;;;2.00;;
17648;SDS011;8943;51.110;-4.158;2023-08-08T04:28:47;3.03;;;2.10;;
17648;SDS011;8943;51.110;-4.158;2023-08-08T04:31:17;4.20;;;2.30;;
17648;SDS011;8943;51.110;-4.158;2023-08-08T04:33:46;3.83;;;2.23;;
17648;SDS011;8943;51.110;-4.158;2023-08-08T04:36:14;5.80;;;2.37;;
17648;SDS011;8943;51.110;-4.158;2023-08-08T04:38:48;3.77;;;2.17;;
17648;SDS011;8943;51.110;-4.158;2023-08-08T04:41:20;5.77;;;2.40;;
17648;SDS011;8943;51.110;-4.158;2023-08-08T04:43:49;4.30;;;2.17;;
17648;SDS011;8943;51.110;-4.158;2023-08-08T04:46:17;2.50;;;1.87;;
17648;SDS011;8943;51.110;-4.158;2023-08-08T04:48:46;2.67;;;1.93;;
17648;SDS011;8943;51.110;-4.158;2023-08-08T04:51:14;3.80;;;2.00;;
17648;SDS011;8943;51.110;-4.158;2023-08-08T04:53:43;4.57;;;2.43;;
17648;SDS011;8943;51.110;-4.158;2023-08-08T04:56:13;2.73;;;2.17;;
17648;SDS011;8943;51.110;-4.158;2023-08-08T04:58:42;5.33;;;2.23;;
17648;SDS011;8943;51.110;-4.158;2023-08-08T05:01:11;4.77;;;2.07;;
17648;SDS011;8943;51.110;-4.158;2023-08-08T05:03:42;4.77;;;1.90;;
17648;SDS011;8943;51.110;-4.158;2023-08-08T05:06:10;4.13;;;2.00;;
17648;SDS011;8943;51.110;-4.158;2023-08-08T05:08:39;2.63;;;1.73;;
17648;SDS011;8943;51.110;-4.158;2023-08-08T05:11:11;4.03;;;1.93;;
17648;SDS011;8943;51.110;-4.158;2023-08-08T05:13:41;3.80;;;2.03;;
17648;SDS011;8943;51.110;-4.158;2023-08-08T05:16:10;2.80;;;1.90;;
17648;SDS011;8943;51.110;-4.158;2023-08-08T05:18:39;4.80;;;1.80;;
17648;SDS011;8943;51.110;-4.158;2023-08-08T05:21:10;3.27;;;2.00;;
17648;SDS011;8943;51.110;-4.158;2023-08-08T05:23:40;3.90;;;1.87;;
17648;SDS011;8943;51.110;-4.158;2023-08-08T05:26:09;1.97;;;1.83;;
17648;SDS011;8943;51.110;-4.158;2023-08-08T05:28:39;2.97;;;1.80;;
17648;SDS011;8943;51.110;-4.158;2023-08-08T05:31:10;5.50;;;1.90;;
17648;SDS011;8943;51.110;-4.158;2023-08-08T05:33:38;2.47;;;1.60;;
17648;SDS011;8943;51.110;-4.158;2023-08-08T05:36:07;3.47;;;1.67;;
17648;SDS011;8943;51.110;-4.158;2023-08-08T05:38:37;3.70;;;1.70;;
17648;SDS011;8943;51.110;-4.158;2023-08-08T05:41:09;3.73;;;1.60;;
17648;SDS011;8943;51.110;-4.158;2023-08-08T05:43:37;3.83;;;1.97;;
17648;SDS011;8943;51.110;-4.158;2023-08-08T05:46:09;3.77;;;1.77;;
17648;SDS011;8943;51.110;-4.158;2023-08-08T05:48:46;3.67;;;2.10;;
17648;SDS011;8943;51.110;-4.158;2023-08-08T05:51:16;4.13;;;1.93;;
17648;SDS011;8943;51.110;-4.158;2023-08-08T05:53:44;3.50;;;1.77;;
17648;SDS011;8943;51.110;-4.158;2023-08-08T05:56:13;4.50;;;2.13;;
17648;SDS011;8943;51.110;-4.158;2023-08-08T05:58:44;1.90;;;1.40;;
17648;SDS011;8943;51.110;-4.158;2023-08-08T06:01:13;2.93;;;1.67;;
17648;SDS011;8943;51.110;-4.158;2023-08-08T06:03:42;4.00;;;1.57;;
17648;SDS011;8943;51.110;-4.158;2023-08-08T06:06:10;3.70;;;1.70;;
17648;SDS011;8943;51.110;-4.158;2023-08-08T06:08:39;2.20;;;1.57;;
17648;SDS011;8943;51.110;-4.158;2023-08-08T06:11:08;2.53;;;1.50;;
17648;SDS011;8943;51.110;-4.158;2023-08-08T06:13:37;2.63;;;1.47;;
17648;SDS011;8943;51.110;-4.158;2023-08-08T06:16:09;2.03;;;1.40;;
17648;SDS011;8943;51.110;-4.158;2023-08-08T06:18:37;1.90;;;1.53;;
17648;SDS011;8943;51.110;-4.158;2023-08-08T07:05:36;1.23;;;1.00;;
17648;SDS011;8943;51.110;-4.158;2023-08-08T07:08:08;5.17;;;0.93;;
17648;SDS011;8943;51.110;-4.158;2023-08-08T07:10:38;2.13;;;0.87;;
17648;SDS011;8943;51.110;-4.158;2023-08-08T07:13:12;0.90;;;0.80;;
17648;SDS011;8943;51.110;-4.158;2023-08-08T07:18:17;1.40;;;0.77;;
17648;SDS011;8943;51.110;-4.158;2023-08-08T07:20:48;1.73;;;0.80;;
17648;SDS011;8943;51.110;-4.158;2023-08-08T07:23:17;1.47;;;0.80;;
17648;SDS011;8943;51.110;-4.158;2023-08-08T07:25:49;1.17;;;0.73;;
17648;SDS011;8943;51.110;-4.158;2023-08-08T07:28:45;1.73;;;0.90;;
17648;SDS011;8943;51.110;-4.158;2023-08-08T07:31:52;0.87;;;0.50;;
17648;SDS011;8943;51.110;-4.158;2023-08-08T07:34:37;1.73;;;0.80;;
17648;SDS011;8943;51.110;-4.158;2023-08-08T07:51:14;1.33;;;0.93;;
17648;SDS011;8943;51.110;-4.158;2023-08-08T07:53:43;1.03;;;0.70;;
17648;SDS011;8943;51.110;-4.158;2023-08-08T08:14:33;1.53;;;0.97;;
17648;SDS011;8943;51.110;-4.158;2023-08-08T09:52:53;2.60;;;0.30;;
17648;SDS011;8943;51.110;-4.158;2023-08-08T09:58:31;0.17;;;0.10;;
17648;SDS011;8943;51.110;-4.158;2023-08-08T10:01:01;0.40;;;0.20;;
17648;SDS011;8943;51.110;-4.158;2023-08-08T10:03:31;3.90;;;0.20;;
17648;SDS011;8943;51.110;-4.158;2023-08-08T10:06:00;0.37;;;0.30;;
17648;SDS011;8943;51.110;-4.158;2023-08-08T10:08:31;0.20;;;0.20;;
17648;SDS011;8943;51.110;-4.158;2023-08-08T10:11:00;0.57;;;0.40;;
17648;SDS011;8943;51.110;-4.158;2023-08-08T10:13:31;0.70;;;0.43;;
17648;SDS011;8943;51.110;-4.158;2023-08-08T10:32:51;3.13;;;0.70;;
17648;SDS011;8943;51.110;-4.158;2023-08-08T11:05:45;2.77;;;1.00;;
17648;SDS011;8943;51.110;-4.158;2023-08-08T11:37:11;2.63;;;1.00;;
17648;SDS011;8943;51.110;-4.158;2023-08-08T11:45:08;1.87;;;0.90;;
17648;SDS011;8943;51.110;-4.158;2023-08-08T14:52:42;4.17;;;0.70;;
17648;SDS011;8943;51.110;-4.158;2023-08-08T14:55:16;1.37;;;0.80;;
17648;SDS011;8943;51.110;-4.158;2023-08-08T15:31:07;1.47;;;0.87;;
17648;SDS011;8943;51.110;-4.158;2023-08-08T15:33:38;0.83;;;0.60;;
17648;SDS011;8943;51.110;-4.158;2023-08-08T22:35:44;10.60;;;1.17;;
17648;SDS011;8943;51.110;-4.158;2023-08-08T22:38:34;3.43;;;1.27;;
17648;SDS011;8943;51.110;-4.158;2023-08-08T22:49:03;2.13;;;1.30;;
17648;SDS011;8943;51.110;-4.158;2023-08-08T22:51:37;7.63;;;1.43;;
17648;SDS011;8943;51.110;-4.158;2023-08-08T22:54:34;2.30;;;1.23;;
17648;SDS011;8943;51.110;-4.158;2023-08-08T22:57:03;3.30;;;1.63;;
17648;SDS011;8943;51.110;-4.158;2023-08-08T22:59:32;3.20;;;1.43;;
17648;SDS011;8943;51.110;-4.158;2023-08-08T23:35:05;4.70;;;2.20;;
17648;SDS011;8943;51.110;-4.158;2023-08-08T23:37:44;4.27;;;2.00;;
17648;SDS011;8943;51.110;-4.158;2023-08-08T23:43:08;2.70;;;1.63;;
17648;SDS011;8943;51.110;-4.158;2023-08-08T23:46:05;6.43;;;2.00;;
17648;SDS011;8943;51.110;-4.158;2023-08-08T23:54:42;4.77;;;2.10;;
17648;SDS011;8943;51.110;-4.158;2023-08-08T23:57:49;3.47;;;1.80;;
